createdAt,value
2019-02-25T00:04:18.990Z,13.90
2019-02-25T00:09:24.793Z,16.20
2019-02-25T00:14:36.951Z,15.30
2019-02-25T00:19:42.399Z,16.40
2019-02-25T00:24:48.527Z,15.27
2019-02-25T00:29:53.971Z,15.27
2019-02-25T00:34:59.562Z,16.13
2019-02-25T00:40:05.303Z,14.43
2019-02-25T00:45:10.839Z,13.67
2019-02-25T00:50:16.286Z,13.33
2019-02-25T00:55:22.087Z,13.93
2019-02-25T01:00:27.533Z,12.47
2019-02-25T01:05:32.997Z,14.03
2019-02-25T01:10:39.175Z,13.37
2019-02-25T01:15:44.962Z,12.77
2019-02-25T01:20:50.522Z,12.27
2019-02-25T01:25:55.992Z,12.83
2019-02-25T01:31:01.487Z,11.93
2019-02-25T01:36:07.375Z,12.63
2019-02-25T01:41:12.815Z,13.13
2019-02-25T01:46:18.280Z,12.33
2019-02-25T01:51:23.734Z,12.20
2019-02-25T01:56:29.195Z,11.93
2019-02-25T02:01:34.658Z,12.27
2019-02-25T02:12:00.163Z,11.27
2019-02-25T02:17:05.953Z,12.10
2019-02-25T02:22:12.091Z,11.23
2019-02-25T02:27:17.541Z,11.63
2019-02-25T02:32:23.350Z,10.60
2019-02-25T02:37:28.834Z,11.57
2019-02-25T02:42:34.439Z,11.67
2019-02-25T02:47:48.971Z,11.40
2019-02-25T02:52:54.782Z,11.70
2019-02-25T02:58:00.266Z,12.13
2019-02-25T03:03:05.731Z,11.57
2019-02-25T03:08:11.554Z,10.57
2019-02-25T03:13:17.742Z,12.97
2019-02-25T03:18:23.195Z,13.10
2019-02-25T03:23:28.721Z,11.20
2019-02-25T03:28:34.212Z,12.57
2019-02-25T03:33:39.680Z,11.57
2019-02-25T03:38:45.166Z,11.57
2019-02-25T03:43:50.616Z,12.10
2019-02-25T03:48:56.063Z,11.97
2019-02-25T03:54:02.008Z,10.87
2019-02-25T03:59:07.843Z,11.57
2019-02-25T04:04:13.293Z,11.57
2019-02-25T04:09:19.804Z,11.60
2019-02-25T04:14:25.282Z,11.40
2019-02-25T04:19:31.271Z,11.27
2019-02-25T04:24:36.715Z,11.67
2019-02-25T04:29:42.509Z,11.13
2019-02-25T04:34:48.020Z,12.07
2019-02-25T04:39:53.494Z,11.50
2019-02-25T04:44:59.000Z,11.43
2019-02-25T04:50:04.816Z,10.93
2019-02-25T04:55:10.942Z,10.80
2019-02-25T05:00:17.661Z,10.57
2019-02-25T05:05:23.114Z,10.93
2019-02-25T05:10:28.570Z,11.00
2019-02-25T05:15:34.270Z,10.77
2019-02-25T05:20:39.755Z,10.60
2019-02-25T05:25:45.249Z,12.83
2019-02-25T05:30:50.728Z,11.97
2019-02-25T05:35:56.249Z,11.13
2019-02-25T05:41:01.826Z,11.73
2019-02-25T05:46:07.321Z,11.17
2019-02-25T05:51:12.854Z,11.87
2019-02-25T05:56:18.673Z,10.93
2019-02-25T06:01:24.239Z,12.10
2019-02-25T06:06:29.918Z,11.90
2019-02-25T06:11:35.370Z,11.73
2019-02-25T06:16:40.967Z,10.97
2019-02-25T06:21:46.438Z,11.77
2019-02-25T06:26:52.022Z,11.10
2019-02-25T06:31:57.510Z,11.83
2019-02-25T06:37:02.973Z,11.00
2019-02-25T06:42:08.427Z,11.33
2019-02-25T06:47:13.870Z,11.43
2019-02-25T06:52:20.114Z,10.93
2019-02-25T06:57:25.847Z,14.83
2019-02-25T07:02:31.627Z,13.90
2019-02-25T07:07:42.247Z,13.03
2019-02-25T07:12:51.762Z,13.07
2019-02-25T07:18:08.748Z,15.87
2019-02-25T07:23:19.323Z,14.50
2019-02-25T07:28:30.776Z,15.20
2019-02-25T07:33:40.419Z,17.90
2019-02-25T07:38:52.354Z,16.50
2019-02-25T07:44:03.014Z,15.47
2019-02-25T07:49:21.775Z,14.93
2019-02-25T07:54:34.172Z,16.60
2019-02-25T07:59:45.729Z,15.40
2019-02-25T08:04:55.329Z,16.77
2019-02-25T08:10:40.327Z,16.47
2019-02-25T08:15:56.056Z,14.70
2019-02-25T08:21:10.558Z,15.57
2019-02-25T08:27:19.887Z,15.77
2019-02-25T08:32:35.156Z,15.47
2019-02-25T08:38:20.989Z,16.07
2019-02-25T08:43:31.185Z,15.63
2019-02-25T08:48:41.958Z,16.27
2019-02-25T08:53:48.134Z,15.83
2019-02-25T08:58:53.603Z,16.03
2019-02-25T09:03:59.107Z,15.77
2019-02-25T09:09:05.546Z,16.37
2019-02-25T09:14:11.042Z,16.90
2019-02-25T09:19:16.547Z,17.53
2019-02-25T09:24:22.006Z,18.80
2019-02-25T09:29:27.795Z,18.17
2019-02-25T09:34:33.267Z,20.60
2019-02-25T09:39:38.716Z,22.43
2019-02-25T09:44:44.583Z,21.33
2019-02-25T09:49:51.051Z,22.43
2019-02-25T09:54:56.035Z,21.83
2019-02-25T10:00:01.546Z,22.17
2019-02-25T10:05:07.667Z,21.27
2019-02-25T10:10:14.276Z,21.87
2019-02-25T10:15:20.519Z,22.10
2019-02-25T10:20:26.309Z,23.37
2019-02-25T10:25:31.816Z,21.97
2019-02-25T10:30:37.591Z,22.37
2019-02-25T10:35:43.132Z,20.80
2019-02-25T10:40:49.604Z,19.30
2019-02-25T10:45:54.264Z,19.93
2019-02-25T10:50:59.896Z,18.13
2019-02-25T10:56:23.609Z,19.57
2019-02-25T11:01:27.290Z,20.10
2019-02-25T11:06:35.625Z,17.97
2019-02-25T11:11:39.718Z,16.63
2019-02-25T11:16:46.028Z,17.83
2019-02-25T11:21:50.838Z,16.43
2019-02-25T11:26:56.948Z,16.33
2019-02-25T11:32:03.084Z,16.73
2019-02-25T11:37:09.010Z,17.10
2019-02-25T11:42:18.729Z,15.17
2019-02-25T11:47:21.211Z,13.97
2019-02-25T11:52:26.690Z,13.43
2019-02-25T11:57:32.167Z,12.47
2019-02-25T12:02:37.619Z,12.47
2019-02-25T12:07:43.446Z,11.30
2019-02-25T12:12:48.900Z,11.73
2019-02-25T12:17:59.663Z,11.43
2019-02-25T12:23:07.211Z,10.10
2019-02-25T12:28:13.966Z,10.40
2019-02-25T12:33:19.463Z,11.00
2019-02-25T12:38:27.780Z,10.30
2019-02-25T12:43:36.118Z,10.47
2019-02-25T12:48:43.301Z,11.23
2019-02-25T12:53:50.113Z,11.17
2019-02-25T12:58:55.723Z,11.70
2019-02-25T13:04:04.279Z,12.13
2019-02-25T13:09:16.739Z,12.33
2019-02-25T13:14:22.386Z,11.70
2019-02-25T13:19:28.455Z,13.17
2019-02-25T13:24:35.188Z,13.50
2019-02-25T13:35:00.266Z,9.20
2019-02-25T13:40:06.267Z,9.27
2019-02-25T13:45:12.871Z,9.27
2019-02-25T13:50:18.403Z,9.07
2019-02-25T13:55:24.035Z,11.23
2019-02-25T14:00:29.920Z,11.43
2019-02-25T14:05:36.263Z,11.87
2019-02-25T14:10:41.800Z,9.97
2019-02-25T14:15:47.407Z,9.03
2019-02-25T14:20:53.960Z,9.87
2019-02-25T14:25:59.991Z,10.13
2019-02-25T14:31:05.630Z,10.80
2019-02-25T14:36:11.422Z,10.70
2019-02-25T14:41:18.523Z,10.90
2019-02-25T14:46:24.965Z,11.13
2019-02-25T14:51:31.704Z,12.97
2019-02-25T14:56:37.424Z,12.40
2019-02-25T15:01:43.163Z,12.40
2019-02-25T15:06:48.725Z,11.07
2019-02-25T15:11:55.932Z,11.23
2019-02-25T15:17:00.384Z,12.73
2019-02-25T15:22:06.051Z,11.67
2019-02-25T15:27:12.960Z,12.33
2019-02-25T15:32:17.358Z,12.50
2019-02-25T15:37:22.919Z,14.80
2019-02-25T15:42:30.093Z,14.20
2019-02-25T15:47:34.301Z,15.47
2019-02-25T15:52:40.327Z,16.23
2019-02-25T15:57:46.278Z,16.73
2019-02-25T16:02:52.845Z,16.53
2019-02-25T16:08:00.615Z,15.97
2019-02-25T16:13:09.286Z,16.60
2019-02-25T16:18:13.776Z,15.90
2019-02-25T16:23:16.499Z,16.87
2019-02-25T16:28:22.534Z,16.53
2019-02-25T16:33:28.252Z,16.60
2019-02-25T16:38:34.635Z,15.93
2019-02-25T16:43:39.311Z,17.30
2019-02-25T16:48:46.403Z,15.30
2019-02-25T16:53:52.285Z,17.10
2019-02-25T16:58:56.743Z,19.20
2019-02-25T17:04:01.984Z,18.87
2019-02-25T17:09:09.699Z,17.60
2019-02-25T17:14:14.972Z,17.23
2019-02-25T17:19:19.661Z,19.10
2019-02-25T17:24:26.496Z,19.40
2019-02-25T17:29:31.956Z,18.93
2019-02-25T17:34:37.573Z,18.63
2019-02-25T17:39:43.254Z,18.10
2019-02-25T17:44:49.041Z,16.77
2019-02-25T17:49:56.074Z,16.00
2019-02-25T17:55:01.515Z,16.43
2019-02-25T18:00:13.219Z,17.70
2019-02-25T18:05:19.122Z,18.87
2019-02-25T18:10:25.150Z,26.90
2019-02-25T18:15:31.101Z,21.10
2019-02-25T18:20:36.603Z,19.10
2019-02-25T18:25:41.878Z,17.50
2019-02-25T18:30:47.787Z,17.60
2019-02-25T18:35:53.370Z,18.20
2019-02-25T18:41:00.381Z,18.10
2019-02-25T18:46:07.025Z,18.40
2019-02-25T18:51:10.650Z,17.60
2019-02-25T18:56:16.740Z,18.70
2019-02-25T19:01:22.388Z,16.50
2019-02-25T19:06:29.313Z,17.83
2019-02-25T19:11:33.449Z,18.03
2019-02-25T19:16:40.047Z,18.67
2019-02-25T19:21:45.746Z,18.97
2019-02-25T19:26:51.122Z,18.47
2019-02-25T19:32:00.640Z,18.50
2019-02-25T19:37:04.512Z,18.40
2019-02-25T19:42:08.749Z,18.13
2019-02-25T19:47:16.247Z,16.97
2019-02-25T19:52:20.067Z,19.27
2019-02-25T19:57:27.937Z,18.03
2019-02-25T20:02:32.898Z,19.37
2019-02-25T20:07:37.547Z,21.30
2019-02-25T20:12:43.127Z,20.73
2019-02-25T20:17:50.424Z,21.07
2019-02-25T20:22:54.242Z,21.53
2019-02-25T20:28:02.044Z,21.73
2019-02-25T20:33:06.981Z,20.53
2019-02-25T20:38:12.283Z,21.07
2019-02-25T20:43:21.831Z,21.43
2019-02-25T20:48:27.516Z,19.33
2019-02-25T20:53:33.835Z,20.37
2019-02-25T20:58:38.313Z,20.67
2019-02-25T21:03:45.770Z,19.83
2019-02-25T21:08:49.024Z,19.93
2019-02-25T21:13:54.585Z,18.57
2019-02-25T21:19:00.451Z,19.43
2019-02-25T21:24:08.684Z,18.40
2019-02-25T21:29:11.897Z,18.57
2019-02-25T21:34:19.772Z,19.00
2019-02-25T21:39:22.961Z,19.83
2019-02-25T21:44:28.944Z,19.90
2019-02-25T21:49:35.978Z,18.90
2019-02-25T21:54:39.909Z,19.70
2019-02-25T21:59:45.568Z,19.97
2019-02-25T22:04:51.840Z,19.60
2019-02-25T22:09:56.776Z,19.77
2019-02-25T22:15:02.352Z,19.27
2019-02-25T22:20:12.072Z,18.97
2019-02-25T22:25:16.175Z,19.93
2019-02-25T22:30:21.439Z,19.20
2019-02-25T22:35:27.275Z,18.93
2019-02-25T22:40:34.467Z,18.37
2019-02-25T22:45:39.712Z,18.83
2019-02-25T22:50:44.174Z,16.87
2019-02-25T22:55:50.384Z,17.97
2019-02-25T23:00:58.292Z,17.77
2019-02-25T23:06:01.883Z,18.13
2019-02-25T23:11:09.996Z,16.93
2019-02-25T23:16:13.761Z,17.50
2019-02-25T23:21:23.757Z,17.57
2019-02-25T23:26:24.252Z,15.93
2019-02-25T23:31:30.742Z,17.00
2019-02-25T23:36:40.700Z,16.47
2019-02-25T23:41:43.830Z,16.90
2019-02-25T23:46:47.353Z,15.83
2019-02-25T23:51:52.871Z,16.70
2019-02-25T23:57:00.155Z,14.93
